Startpagina
METAR-TAF:

METAR-TAF

Vliegvelden :

Luchthaven Ouagadougou Internationaal

Ouagadougou, Burkina Faso

breedte: 12-21N, lengte: 001-31W, hoogte: 316 m

Actueel weer

Dit bericht is 55 minuten geleden gemaakt, om 18:00 UTC
Wind 7 kt uit het noordoosten
Temperatuur 38°C
Vochtigheid 23%
Druk 1009 hPa
Zicht 10 km of meer
Weinig wolken op 2000 ft

METAR: DFFD 251800Z 04007KT 9999 FEW020 38/13 Q1009 NOSIG

Tijdstip: 18:55 (18:55 UTC)

Verwachting

Dit bericht is 1 uur en het 55 minuten geleden gemaakt, om 17:00 UTC
Verwachting geldig van 25 om 18 UTC tot 26 om 24 UTC
Wind 8 kt uit het westzuidwesten
Zicht 10 km of meer
Weinig wolken op 2000 ft
Tijdelijke
van 25 om 18 UTC tot 26 om 06 UTC
Zicht: 4000 m
Verspreide wolken op 2000 ft
Weinig wolken op 3600 ft, Cumulonimbus.
onweer, regen
Kans 30% :
Tijdelijke
van 26 om 12 UTC tot 26 om 21 UTC
Zicht: 4000 m
verspreid stof

TAF: DFFD 251700Z 2518/2624 24008KT 9999 FEW020 TEMPO 2518/2606 4000 TSRA SCT020 FEW036CB PROB30 TEMPO 2612/2621 4000 DU

Waarnemingen en weersverwachtingen van meer dan 4000 vliegvelden (METAR en TAF).

De beschikbare stations zijn de gele en rode punten op de kaart.

Ga met uw muis naar het station om de naam te zien.

Klik dan om waarnemingen en weersverwachtingen te zien.

kaart wijzigen: klik op de groene knoppen met een zwart kruis om in te zoomen, op de groene knop met een streepje om uit te zoomen of op de groene pijlen voor aangrenzende kaarten.


METAR-TAF: